Time;durP1;ratioP1;P1;durP2;ratioP2;P2;SDS_P1;SDS_P2;PMS_P1;PMS_P2;Temp;Humidity;BMP_temperature;BMP_pressure;BME280_temperature;BME280_humidity;BME280_pressure;Samples;Min_cycle;Max_cycle;Signal;HPM_P1;HPM_P2
2021/04/01 00:01:11;;;;;;;5.28;3.55;;;;;;;12.40;58.03;100721.66;5003497;28;20018;-83
2021/04/01 00:03:38;;;;;;;4.45;3.78;;;;;;;12.40;57.91;100734.78;5020429;28;20037;-82
2021/04/01 00:06:04;;;;;;;5.28;3.60;;;;;;;12.43;57.90;100732.09;5003524;28;20030;-82
2021/04/01 00:08:30;;;;;;;5.32;4.05;;;;;;;12.44;58.01;100732.91;5003268;28;20082;-82
2021/04/01 00:10:59;;;;;;;4.50;4.10;;;;;;;12.32;58.46;100714.28;5003160;28;20030;-82
2021/04/01 00:13:27;;;;;;;7.53;4.47;;;;;;;12.29;58.61;100701.84;5002988;28;20112;-82
2021/04/01 00:15:57;;;;;;;5.82;4.32;;;;;;;12.63;58.48;100746.94;5003143;28;20041;-82
2021/04/01 00:18:26;;;;;;;7.38;4.38;;;;;;;12.34;58.17;100697.97;5002866;28;20018;-82
2021/04/01 00:20:52;;;;;;;4.15;3.80;;;;;;;12.42;58.79;100710.94;5002843;28;20006;-82
2021/04/01 00:23:18;;;;;;;5.88;4.22;;;;;;;12.40;58.66;100706.88;5003089;28;20026;-82
2021/04/01 00:25:44;;;;;;;5.68;4.40;;;;;;;12.62;58.39;100717.38;5002812;28;20030;-82
2021/04/01 00:28:09;;;;;;;6.70;4.93;;;;;;;12.57;58.89;100710.13;5002816;28;20011;-82
2021/04/01 00:30:35;;;;;;;7.45;4.70;;;;;;;12.54;59.11;100716.41;5002607;28;20114;-82
2021/04/01 00:33:02;;;;;;;5.13;3.97;;;;;;;12.41;58.25;100675.84;5002743;28;20022;-82
2021/04/01 00:35:31;;;;;;;4.07;3.67;;;;;;;12.63;57.87;100707.03;4986409;28;20012;-83
2021/04/01 00:37:57;;;;;;;4.35;3.80;;;;;;;12.64;57.89;100706.66;5002253;28;20021;-82
2021/04/01 00:40:24;;;;;;;5.20;4.00;;;;;;;12.74;58.70;100724.84;5002401;28;20018;-82
2021/04/01 00:42:50;;;;;;;4.88;4.38;;;;;;;12.72;58.51;100721.59;5002336;28;20098;-82
2021/04/01 00:45:16;;;;;;;6.47;4.07;;;;;;;12.44;58.75;100675.09;4997541;28;20006;-82
2021/04/01 00:47:45;;;;;;;3.75;3.45;;;;;;;12.27;58.66;100667.94;5002117;28;20041;-83
2021/04/01 00:50:20;;;;;;;3.70;3.35;;;;;;;12.85;58.23;100734.25;4986462;28;20041;-82
2021/04/01 00:52:46;;;;;;;4.32;3.83;;;;;;;12.90;57.86;100733.16;5002293;28;20029;-82
2021/04/01 00:55:12;;;;;;;3.85;3.33;;;;;;;12.90;57.61;100728.41;5001954;28;20093;-83
2021/04/01 00:57:41;;;;;;;6.68;3.58;;;;;;;12.79;58.16;100725.38;5001848;28;20041;-82
2021/04/01 01:00:09;;;;;;;4.00;3.28;;;;;;;12.81;57.90;100720.22;5002215;28;20030;-81
2021/04/01 01:02:35;;;;;;;3.92;3.58;;;;;;;12.85;58.16;100720.31;5002457;28;20030;-83
2021/04/01 01:05:02;;;;;;;4.10;3.70;;;;;;;12.82;58.45;100719.03;5002592;28;20288;-83
2021/04/01 01:07:28;;;;;;;4.85;3.42;;;;;;;12.86;58.36;100730.28;5002040;28;20032;-82
2021/04/01 01:09:53;;;;;;;3.85;3.50;;;;;;;12.82;58.40;100712.63;5002135;28;20050;-83
2021/04/01 01:12:19;;;;;;;4.50;3.50;;;;;;;12.79;58.62;100728.16;5002462;28;20014;-82
2021/04/01 01:14:44;;;;;;;3.67;3.03;;;;;;;12.77;58.83;100726.88;5002221;28;20018;-81
2021/04/01 01:17:14;;;;;;;3.50;3.20;;;;;;;12.71;58.52;100719.97;5002107;28;20050;-82
2021/04/01 01:19:40;;;;;;;3.95;3.58;;;;;;;12.67;58.51;100713.50;5001974;28;20081;-82
2021/04/01 01:22:09;;;;;;;4.05;3.75;;;;;;;12.66;57.92;100712.69;5001954;28;20018;-82
2021/04/01 01:24:35;;;;;;;4.03;3.63;;;;;;;12.68;58.16;100712.34;5002049;28;20034;-82
2021/04/01 01:27:04;;;;;;;3.83;3.53;;;;;;;12.69;58.51;100711.16;5001919;28;20049;-83
2021/04/01 01:29:31;;;;;;;3.70;3.40;;;;;;;12.69;57.70;100700.00;5018601;28;20077;-83
2021/04/01 01:31:57;;;;;;;4.38;3.25;;;;;;;12.77;57.57;100710.13;5001865;28;20135;-82
2021/04/01 01:34:22;;;;;;;4.38;3.22;;;;;;;12.72;57.65;100705.63;5001773;28;20049;-82
2021/04/01 01:36:48;;;;;;;3.28;2.80;;;;;;;12.65;57.60;100704.69;5001552;28;20015;-82
2021/04/01 01:39:13;;;;;;;2.70;2.50;;;;;;;12.65;57.48;100711.06;5001664;28;20014;-83
2021/04/01 01:41:39;;;;;;;2.80;2.60;;;;;;;12.67;57.51;100713.50;4999364;28;20006;-82
2021/04/01 01:44:05;;;;;;;3.65;3.00;;;;;;;12.64;57.61;100706.66;5000419;28;20045;-82
2021/04/01 01:46:31;;;;;;;3.88;3.05;;;;;;;12.57;57.70;100698.94;5001447;28;20042;-82
2021/04/01 01:48:57;;;;;;;3.17;2.88;;;;;;;12.55;57.35;100704.06;5001794;28;20023;-83
2021/04/01 01:51:24;;;;;;;2.70;2.50;;;;;;;12.62;56.67;100688.66;5001561;28;20045;-82
2021/04/01 01:53:50;;;;;;;2.67;2.47;;;;;;;12.78;55.83;100700.56;5001626;28;20030;-82
2021/04/01 01:56:22;;;;;;;2.90;2.70;;;;;;;12.72;55.31;100697.25;5018620;28;20038;-82
2021/04/01 01:58:49;;;;;;;2.60;2.40;;;;;;;12.73;55.81;100695.28;4998258;28;20038;-83
2021/04/01 02:01:16;;;;;;;3.13;2.60;;;;;;;12.86;55.18;100699.56;4998895;28;20026;-82
2021/04/01 02:03:42;;;;;;;4.10;2.95;;;;;;;12.78;54.74;100686.63;4998193;28;20027;-83
2021/04/01 02:06:11;;;;;;;3.00;2.25;;;;;;;12.76;55.18;100677.81;4990711;28;20066;-82
2021/04/01 02:08:39;;;;;;;2.45;2.25;;;;;;;12.72;55.53;100674.13;4978934;28;20031;-84
2021/04/01 02:11:05;;;;;;;3.45;2.45;;;;;;;12.77;55.44;100674.63;4978867;28;20023;-83
2021/04/01 02:13:31;;;;;;;3.10;2.80;;;;;;;12.73;55.73;100678.53;4978960;28;20051;-83
2021/04/01 02:15:57;;;;;;;3.10;2.88;;;;;;;12.68;55.52;100674.06;4978989;28;20059;-82
2021/04/01 02:18:27;;;;;;;2.78;2.58;;;;;;;12.68;55.29;100668.47;4979416;28;20046;-82
2021/04/01 02:20:55;;;;;;;2.97;2.78;;;;;;;12.67;55.19;100678.00;4983332;28;20019;-83
2021/04/01 02:23:23;;;;;;;3.75;3.45;;;;;;;12.64;55.41;100680.75;4982675;28;20046;-82
2021/04/01 02:25:50;;;;;;;3.03;2.70;;;;;;;12.61;55.71;100671.09;4983022;28;20046;-82
2021/04/01 02:28:19;;;;;;;2.67;2.45;;;;;;;12.55;55.18;100678.94;4982678;28;20015;-82
2021/04/01 02:30:47;;;;;;;2.78;2.58;;;;;;;12.56;55.18;100679.75;4982940;28;20022;-83
2021/04/01 02:33:13;;;;;;;3.25;2.90;;;;;;;12.61;54.87;100673.06;4982614;28;20022;-83
2021/04/01 02:35:39;;;;;;;3.00;2.65;;;;;;;12.55;54.87;100673.34;4982268;28;20066;-82
2021/04/01 02:38:07;;;;;;;2.83;2.60;;;;;;;12.56;55.46;100685.34;4982065;28;20031;-83
2021/04/01 02:40:34;;;;;;;2.55;2.35;;;;;;;12.48;55.90;100673.22;4982298;28;20034;-82
2021/04/01 02:43:00;;;;;;;3.00;2.80;;;;;;;12.49;55.40;100688.78;4982205;28;20012;-83
2021/04/01 02:45:26;;;;;;;3.03;2.83;;;;;;;12.56;55.72;100686.13;4982038;28;20047;-83
2021/04/01 02:47:51;;;;;;;4.65;2.58;;;;;;;12.54;55.70;100688.50;4982302;28;20042;-82
2021/04/01 02:50:20;;;;;;;3.17;2.88;;;;;;;12.51;56.36;100689.22;4981595;28;20023;-82
2021/04/01 02:52:45;;;;;;;7.47;3.33;;;;;;;12.53;55.98;100689.69;4981571;28;20043;-83
2021/04/01 02:55:12;;;;;;;3.38;3.08;;;;;;;12.45;56.33;100685.09;4981872;28;20046;-82
2021/04/01 02:57:38;;;;;;;3.17;2.83;;;;;;;12.45;56.97;100689.88;4981060;28;20059;-82
2021/04/01 03:00:08;;;;;;;4.80;4.40;;;;;;;12.42;56.86;100687.81;4981732;28;20047;-82
2021/04/01 03:02:35;;;;;;;4.30;4.00;;;;;;;12.32;57.10;100681.63;4982079;28;20012;-83
2021/04/01 03:05:05;;;;;;;4.93;4.43;;;;;;;12.21;57.30;100674.16;4981746;28;20055;-83
2021/04/01 03:07:31;;;;;;;7.40;6.38;;;;;;;12.07;57.77;100661.47;4981629;28;20011;-82
2021/04/01 03:09:56;;;;;;;11.63;9.93;;;;;;;12.25;57.32;100680.63;4982010;28;20015;-82
2021/04/01 03:12:22;;;;;;;26.23;22.85;;;;;;;12.21;57.75;100682.53;4981818;28;20015;-82
2021/04/01 03:14:47;;;;;;;17.13;15.43;;;;;;;12.14;57.41;100696.28;4981780;28;20046;-83
2021/04/01 03:17:13;;;;;;;25.10;20.08;;;;;;;12.10;58.00;100681.47;4981112;28;20025;-82
2021/04/01 03:19:38;;;;;;;11.82;10.10;;;;;;;12.12;58.08;100681.91;4981028;28;20078;-83
2021/04/01 03:22:04;;;;;;;9.88;8.00;;;;;;;11.99;58.94;100686.78;4981333;28;20059;-82
2021/04/01 03:24:30;;;;;;;10.88;9.35;;;;;;;11.92;58.64;100692.97;4981036;28;20027;-83
2021/04/01 03:26:55;;;;;;;11.10;9.43;;;;;;;11.88;59.73;100694.88;4981210;28;20015;-83
2021/04/01 03:29:21;;;;;;;13.93;12.50;;;;;;;11.78;59.30;100679.47;4980989;28;20047;-83
2021/04/01 03:31:49;;;;;;;15.30;13.18;;;;;;;11.84;59.83;100682.81;4979857;28;20027;-83
2021/04/01 03:34:14;;;;;;;23.00;17.92;;;;;;;11.81;58.81;100689.06;4981042;28;20031;-83
2021/04/01 03:36:44;;;;;;;17.45;14.80;;;;;;;11.70;59.36;100676.84;4980967;28;20051;-83
2021/04/01 03:39:09;;;;;;;21.02;17.58;;;;;;;11.75;59.19;100679.34;4981074;28;20103;-82
2021/04/01 03:41:35;;;;;;;16.88;14.48;;;;;;;11.76;59.64;100681.78;4981002;28;20015;-83
2021/04/01 03:44:00;;;;;;;27.67;22.80;;;;;;;11.61;59.86;100684.53;4980750;28;20027;-83
2021/04/01 03:46:28;;;;;;;27.75;21.15;;;;;;;11.64;59.97;100675.47;4980519;28;20027;-83
2021/04/01 03:48:53;;;;;;;17.13;14.70;;;;;;;11.66;59.43;100676.72;4978855;28;20031;-82
2021/04/01 03:51:19;;;;;;;16.45;13.40;;;;;;;11.58;59.73;100676.91;4979641;28;20039;-82
2021/04/01 03:53:45;;;;;;;11.15;9.23;;;;;;;11.51;60.44;100669.19;4980484;28;20030;-83
2021/04/01 03:56:10;;;;;;;9.23;8.32;;;;;;;11.60;60.21;100680.94;4980641;28;20027;-83
2021/04/01 03:58:57;;;;;;;10.90;9.23;;;;;;;11.55;60.14;100673.66;4980384;28;20079;-83
2021/04/01 04:14:10;;;;;;;13.32;9.63;;;;;;;11.26;61.48;100680.44;5039683;28;20081;-83
2021/04/01 04:16:36;;;;;;;11.25;9.30;;;;;;;11.33;61.46;100671.47;5022844;28;20110;-83
2021/04/01 04:19:01;;;;;;;11.32;8.80;;;;;;;11.24;62.18;100670.84;5022949;28;20026;-83
2021/04/01 04:21:28;;;;;;;9.50;8.50;;;;;;;11.20;62.21;100665.16;5022239;28;20014;-84
2021/04/01 04:23:54;;;;;;;10.18;8.18;;;;;;;11.23;62.65;100674.75;5038972;28;20073;-83
2021/04/01 04:26:21;;;;;;;7.28;6.57;;;;;;;11.23;62.70;100666.41;5039241;28;20018;-83
2021/04/01 04:31:22;;;;;;;6.28;5.43;;;;;;;11.04;61.96;100616.97;5025623;23;20053;-83
2021/04/01 04:33:48;;;;;;;7.32;5.38;;;;;;;11.05;62.14;100649.22;5002421;28;20106;-83
2021/04/01 04:36:14;;;;;;;6.35;5.00;;;;;;;11.25;61.87;100667.69;5002633;28;20061;-83
2021/04/01 04:38:40;;;;;;;6.50;5.28;;;;;;;10.80;62.10;100601.16;5002516;28;20045;-82
2021/04/01 04:41:06;;;;;;;5.85;4.95;;;;;;;11.14;62.48;100654.63;5002706;28;20040;-83
2021/04/01 04:43:32;;;;;;;7.88;5.30;;;;;;;10.85;62.12;100603.69;5002208;28;20045;-83
2021/04/01 04:45:59;;;;;;;4.85;4.13;;;;;;;11.26;62.32;100669.31;5002434;28;20034;-83
2021/04/01 04:48:29;;;;;;;7.97;4.65;;;;;;;10.79;62.50;100601.53;5002455;28;20050;-83
2021/04/01 04:50:55;;;;;;;8.00;5.13;;;;;;;10.96;61.99;100604.81;5002305;28;20065;-83
2021/04/01 04:53:22;;;;;;;6.53;5.80;;;;;;;10.99;62.24;100620.81;5002611;28;20010;-83
2021/04/01 04:56:02;;;;;;;8.20;6.30;;;;;;;10.70;62.82;100587.75;5002208;28;20042;-83
2021/04/01 04:58:50;;;;;;;6.13;5.63;;;;;;;10.91;61.54;100618.97;5018361;28;20143;-83
2021/04/01 05:09:00;;;;;;;5.95;5.35;;;;;;;12.63;57.34;100679.94;5018927;28;20018;-83
2021/04/01 05:11:26;;;;;;;7.70;5.80;;;;;;;13.16;55.45;100676.66;5002160;28;20037;-84
2021/04/01 05:13:51;;;;;;;6.63;5.47;;;;;;;13.69;54.35;100674.06;5002283;28;20049;-83
2021/04/01 05:16:17;;;;;;;7.68;5.30;;;;;;;14.18;52.29;100667.75;5002064;28;20057;-83
2021/04/01 05:18:43;;;;;;;6.45;5.85;;;;;;;14.40;51.00;100634.09;5151063;23;20016;-78
2021/04/01 05:21:13;;;;;;;7.25;5.65;;;;;;;14.80;49.41;100615.84;4997626;28;20018;-82
2021/04/01 05:23:45;;;;;;;6.88;6.10;;;;;;;15.35;48.25;100623.69;4999396;28;20034;-82
2021/04/01 05:26:56;;;;;;;6.20;5.53;;;;;;;15.86;46.75;100637.81;4999180;28;20046;-82
2021/04/01 05:29:13;;;;;;;5.47;5.03;;;;;;;16.42;45.50;100642.25;5101250;23;20050;-81
2021/04/01 05:36:51;;;;;;;35.63;28.40;;;;;;;18.16;41.87;100691.84;5541209;22;20490;-82
2021/04/01 05:39:21;;;;;;;15.80;12.00;;;;;;;18.56;40.76;100687.00;4995076;28;20037;-82
2021/04/01 05:41:49;;;;;;;14.15;12.00;;;;;;;18.94;40.24;100690.97;5005166;28;20023;-83
2021/04/01 05:44:20;;;;;;;14.68;11.10;;;;;;;19.42;39.23;100693.19;4995268;28;20125;-85
2021/04/01 05:46:52;;;;;;;11.43;9.40;;;;;;;19.80;38.77;100691.38;4976807;28;20034;-86
2021/04/01 05:49:32;;;;;;;13.82;11.73;;;;;;;20.26;38.08;100704.34;4994168;28;20080;-86
2021/04/01 06:05:39;;;;;;;10.77;9.68;;;;;;;21.76;36.88;100721.69;4963842;28;20448;-77
2021/04/01 06:08:10;;;;;;;13.80;11.55;;;;;;;21.81;38.04;100721.19;4997840;28;20034;-77
2021/04/01 06:10:38;;;;;;;18.33;12.13;;;;;;;21.86;37.62;100726.38;4979967;28;20117;-76
2021/04/01 06:13:14;;;;;;;15.48;11.68;;;;;;;22.22;37.49;100715.34;4997428;28;20077;-78
2021/04/01 06:15:45;;;;;;;15.30;12.43;;;;;;;22.42;37.00;100719.03;4979883;28;20041;-79
2021/04/01 06:18:13;;;;;;;15.05;12.25;;;;;;;22.78;36.58;100720.44;4990482;28;20041;-77
2021/04/01 06:20:41;;;;;;;14.52;12.50;;;;;;;22.83;36.45;100722.75;4979714;28;20061;-79
2021/04/01 06:23:07;;;;;;;16.30;12.73;;;;;;;22.77;36.06;100725.31;4997275;28;20037;-77
2021/04/01 06:25:39;;;;;;;12.05;10.23;;;;;;;23.35;34.93;100734.31;4979527;28;20035;-78
2021/04/01 06:28:10;;;;;;;12.07;8.88;;;;;;;23.58;34.04;100735.47;4979947;28;20397;-73
2021/04/01 06:30:49;;;;;;;9.70;8.07;;;;;;;22.98;35.20;100741.94;4979910;28;20034;-75
2021/04/01 06:33:20;;;;;;;10.65;9.32;;;;;;;22.59;36.05;100736.19;4979163;28;20029;-73
2021/04/01 06:35:51;;;;;;;11.80;8.80;;;;;;;22.63;35.51;100742.56;4996930;28;20041;-72
2021/04/01 06:38:24;;;;;;;10.75;9.65;;;;;;;22.87;35.75;100741.31;4996496;28;20076;-73
2021/04/01 06:41:05;;;;;;;13.40;10.15;;;;;;;22.51;35.42;100740.34;4976348;28;20035;-74
2021/04/01 06:43:49;;;;;;;10.82;9.25;;;;;;;22.49;35.32;100747.28;4976400;28;20039;-76
2021/04/01 06:46:17;;;;;;;9.70;8.70;;;;;;;21.61;36.61;100743.72;4959716;28;20118;-76
2021/04/01 06:52:11;;;;;;;9.68;8.68;;;;;;;21.62;38.13;100751.78;4984386;28;20030;-75
2021/04/01 06:54:19;;;;;;;10.98;9.75;;;;;;;21.74;38.09;100747.59;4956462;28;20050;-75
2021/04/01 07:04:49;;;;;;;11.68;10.23;;;;;;;22.05;36.42;100751.19;4962554;28;20042;-75
2021/04/01 07:07:17;;;;;;;11.15;9.73;;;;;;;22.05;36.90;100736.22;4960173;28;20105;-75
2021/04/01 07:10:19;;;;;;;10.32;9.18;;;;;;;21.98;37.21;100769.09;4976552;28;20026;-76
2021/04/01 07:12:47;;;;;;;19.10;13.10;;;;;;;22.37;37.75;100767.72;4959507;28;20035;-75
2021/04/01 07:15:24;;;;;;;10.98;9.25;;;;;;;22.66;35.48;100772.91;4959796;28;20117;-74
2021/04/01 07:18:01;;;;;;;10.05;9.02;;;;;;;21.71;38.08;100774.72;4977003;28;20030;-75
2021/04/01 07:20:39;;;;;;;12.07;8.50;;;;;;;21.27;38.71;100767.19;4976463;28;20089;-75
2021/04/01 07:48:03;;;;;;;9.75;7.40;;;;;;;21.84;36.98;100763.66;4976240;28;20093;-75
2021/04/01 07:50:38;;;;;;;9.40;7.38;;;;;;;22.06;36.68;100769.00;4959582;28;20027;-73
2021/04/01 07:53:05;;;;;;;10.23;8.30;;;;;;;22.69;36.43;100760.69;4958844;28;20035;-73
2021/04/01 07:55:56;;;;;;;10.50;7.75;;;;;;;22.49;37.02;100758.59;4975730;28;20026;-74
2021/04/01 08:03:54;;;;;;;11.23;7.30;;;;;;;21.41;37.71;100763.38;4976149;28;20075;-74
2021/04/01 08:06:31;;;;;;;11.23;7.35;;;;;;;21.35;38.14;100757.41;4959418;28;20030;-74
2021/04/01 08:09:07;;;;;;;11.45;7.25;;;;;;;21.29;37.52;100761.88;4975863;28;20103;-74
2021/04/01 08:11:46;;;;;;;10.50;6.65;;;;;;;22.24;35.63;100761.03;4958741;28;20189;-73
2021/04/01 08:14:18;;;;;;;8.65;6.75;;;;;;;21.27;37.35;100757.88;4975778;28;20552;-75
2021/04/01 08:17:22;;;;;;;7.15;6.45;;;;;;;21.49;36.38;100764.13;4958140;28;20182;-74
2021/04/01 08:19:40;;;;;;;8.27;6.45;;;;;;;21.98;36.57;100754.91;4971554;28;20031;-74
2021/04/01 08:22:14;;;;;;;7.90;6.97;;;;;;;22.03;35.82;100753.66;4958965;28;20042;-74
2021/04/01 08:24:48;;;;;;;6.28;5.68;;;;;;;22.72;34.94;100757.00;4975158;28;20132;-73
2021/04/01 08:27:23;;;;;;;7.43;6.47;;;;;;;22.09;35.29;100756.78;4943053;28;20109;-73
2021/04/01 08:35:24;;;;;;;7.88;5.07;;;;;;;23.33;32.77;100753.00;4975201;28;20034;-74
2021/04/01 08:40:40;;;;;;;6.10;4.70;;;;;;;23.47;31.93;100753.53;4975851;28;20046;-74
2021/04/01 08:43:06;;;;;;;7.10;5.15;;;;;;;22.89;32.41;100752.25;4975560;28;20085;-74
2021/04/01 08:46:07;;;;;;;5.88;5.28;;;;;;;23.13;32.39;100758.72;4957873;28;20031;-75
2021/04/01 08:49:00;;;;;;;4.93;4.00;;;;;;;23.94;30.79;100724.13;4947214;28;20039;-74
2021/04/01 08:51:57;;;;;;;7.55;4.63;;;;;;;23.58;30.97;100752.50;4958385;28;20113;-75
2021/04/01 08:54:42;;;;;;;5.22;4.68;;;;;;;23.90;30.82;100752.63;4958474;28;20485;-75
2021/04/01 08:57:09;;;;;;;5.80;4.70;;;;;;;23.65;30.33;100749.53;4957444;28;20182;-75
2021/04/01 09:00:13;;;;;;;4.88;4.45;;;;;;;23.15;30.82;100747.72;4958300;28;20366;-75
2021/04/01 09:02:45;;;;;;;4.22;3.92;;;;;;;24.11;30.08;100744.84;4957669;28;20030;-74
2021/04/01 09:05:11;;;;;;;4.93;3.83;;;;;;;24.75;28.58;100737.56;4958122;28;20039;-75
2021/04/01 09:07:39;;;;;;;4.50;4.10;;;;;;;24.90;28.15;100741.63;4957822;28;20537;-75
2021/04/01 09:10:13;;;;;;;5.30;4.20;;;;;;;25.24;27.47;100735.38;4957974;28;20035;-74
2021/04/01 09:12:53;;;;;;;3.90;3.60;;;;;;;25.26;26.85;100735.75;4957989;28;20197;-74
2021/04/01 09:18:24;;;;;;;4.72;2.80;;;;;;;26.72;24.76;100735.25;4896706;29;20037;-74
2021/04/01 09:20:52;;;;;;;3.20;2.90;;;;;;;27.16;24.14;100733.25;4880581;29;20176;-74
2021/04/01 09:23:21;;;;;;;4.15;3.38;;;;;;;27.80;23.79;100741.47;4927136;28;20035;-75
2021/04/01 09:25:49;;;;;;;5.68;3.83;;;;;;;27.05;24.75;100733.63;4941665;28;20147;-74
2021/04/01 09:28:15;;;;;;;3.40;3.10;;;;;;;26.78;24.53;100730.53;4975596;28;20023;-75
2021/04/01 09:30:42;;;;;;;4.35;3.55;;;;;;;26.21;25.92;100732.47;4961098;28;20042;-74
2021/04/01 09:33:28;;;;;;;4.95;3.95;;;;;;;26.50;25.90;100735.19;4961726;28;20026;-74
2021/04/01 09:36:13;;;;;;;4.55;4.15;;;;;;;26.73;26.73;100728.28;4961012;28;20038;-74
2021/04/01 09:38:42;;;;;;;5.72;4.85;;;;;;;26.73;26.67;100725.41;4978887;28;20022;-75
2021/04/01 09:41:08;;;;;;;4.90;4.50;;;;;;;25.51;28.20;100726.44;4945350;28;20043;-74
2021/04/01 09:43:34;;;;;;;5.82;5.22;;;;;;;24.93;28.60;100722.81;4961070;28;20469;-74
2021/04/01 09:46:13;;;;;;;6.63;6.03;;;;;;;24.76;29.84;100724.91;4989696;28;20370;-74
2021/04/01 09:48:57;;;;;;;11.25;6.00;;;;;;;24.86;29.88;100720.19;4997154;28;20061;-74
2021/04/01 09:51:23;;;;;;;6.43;5.72;;;;;;;25.34;29.72;100719.25;4980435;28;20061;-74
2021/04/01 09:53:53;;;;;;;7.70;6.90;;;;;;;25.11;30.20;100713.84;4996978;28;20065;-74
2021/04/01 09:56:33;;;;;;;7.18;6.50;;;;;;;25.71;29.48;100714.88;4996466;28;20477;-74
2021/04/01 09:59:00;;;;;;;8.18;6.22;;;;;;;26.32;28.68;100707.25;4996400;28;20080;-75
2021/04/01 10:01:28;;;;;;;8.10;6.45;;;;;;;27.04;28.08;100706.34;4996917;28;20038;-74
2021/04/01 10:04:05;;;;;;;9.98;8.35;;;;;;;26.81;28.36;100686.81;4996232;28;20481;-74
2021/04/01 10:06:45;;;;;;;6.63;4.30;;;;;;;26.03;30.21;100705.31;4996446;28;20096;-74
2021/04/01 10:09:19;;;;;;;4.32;3.92;;;;;;;24.90;32.42;100698.91;4996169;28;20038;-74
2021/04/01 10:11:53;;;;;;;6.50;4.70;;;;;;;25.86;31.06;100690.41;4996050;28;20030;-74
2021/04/01 10:14:20;;;;;;;4.38;3.80;;;;;;;26.81;29.81;100687.59;4995992;28;20034;-74
2021/04/01 10:16:50;;;;;;;6.40;3.70;;;;;;;26.31;30.52;100685.66;4996007;28;20036;-74
2021/04/01 10:19:19;;;;;;;4.38;3.85;;;;;;;25.01;32.24;100682.34;4996070;28;20057;-74
2021/04/01 10:21:45;;;;;;;8.63;4.47;;;;;;;24.33;33.61;100688.25;4980334;28;20030;-74
2021/04/01 10:24:22;;;;;;;4.32;3.92;;;;;;;24.40;33.13;100676.72;4997570;28;20112;-74
2021/04/01 10:26:57;;;;;;;4.57;4.18;;;;;;;24.30;33.63;100685.06;4997025;28;20054;-74
2021/04/01 10:29:40;;;;;;;4.38;3.97;;;;;;;24.50;33.24;100681.31;4996095;28;20031;-74
2021/04/01 10:32:07;;;;;;;4.83;4.33;;;;;;;24.67;33.05;100679.25;4996110;28;20034;-75
2021/04/01 10:34:47;;;;;;;5.07;4.10;;;;;;;24.57;33.15;100669.75;4996293;28;20476;-75
2021/04/01 10:37:15;;;;;;;4.95;4.35;;;;;;;24.38;33.57;100664.97;4995928;28;20134;-74
2021/04/01 10:39:44;;;;;;;7.00;5.40;;;;;;;23.91;35.36;100665.31;4996913;28;20046;-74
2021/04/01 10:42:12;;;;;;;7.93;5.13;;;;;;;24.02;34.59;100669.53;4996018;28;20049;-74
2021/04/01 10:44:40;;;;;;;5.72;5.22;;;;;;;24.17;34.70;100663.47;4996879;28;20117;-74
2021/04/01 10:47:08;;;;;;;5.50;5.00;;;;;;;24.88;33.76;100650.22;4996974;28;20061;-74
2021/04/01 10:49:38;;;;;;;5.20;4.70;;;;;;;24.03;34.97;100656.91;4964406;28;20022;-75
2021/04/01 10:52:09;;;;;;;5.10;4.22;;;;;;;24.43;34.50;100651.03;4995745;28;20118;-74
2021/04/01 10:54:41;;;;;;;5.80;4.38;;;;;;;24.61;34.37;100646.88;4996779;28;20432;-74
2021/04/01 10:57:10;;;;;;;6.00;4.50;;;;;;;23.80;35.66;100645.69;4995440;28;20104;-74
2021/04/01 10:59:46;;;;;;;5.68;4.60;;;;;;;23.61;35.42;100638.03;4995317;28;20089;-74
2021/04/01 11:02:23;;;;;;;8.57;4.85;;;;;;;24.06;34.44;100632.47;4995730;28;20054;-75
2021/04/01 11:05:16;;;;;;;8.07;4.15;;;;;;;24.10;34.51;100633.19;4995129;28;20022;-74
2021/04/01 11:07:47;;;;;;;5.15;4.00;;;;;;;24.16;34.63;100627.75;4996772;28;20585;-74
2021/04/01 11:10:26;;;;;;;5.95;4.65;;;;;;;24.21;34.62;100624.38;4996108;28;20478;-74
2021/04/01 11:12:59;;;;;;;6.65;4.78;;;;;;;24.80;33.81;100623.19;4995436;28;20041;-74
2021/04/01 11:15:26;;;;;;;;;;;;;;;24.24;34.98;100617.81;4997062;28;20023;-74
2021/04/01 11:17:59;;;;;;;4.75;4.35;;;;;;;24.75;33.89;100618.84;4995611;28;19914;-74
2021/04/01 11:20:29;;;;;;;5.57;4.45;;;;;;;24.45;34.65;100605.88;4995585;28;20034;-74
2021/04/01 11:23:00;;;;;;;5.03;4.53;;;;;;;24.47;34.65;100588.38;4995465;28;20133;-74
2021/04/01 11:25:29;;;;;;;4.68;4.28;;;;;;;24.60;34.86;100606.25;4994831;28;20030;-74
2021/04/01 11:27:55;;;;;;;4.60;4.20;;;;;;;24.27;35.22;100600.63;4995460;28;20442;-74
2021/04/01 11:30:23;;;;;;;4.85;3.83;;;;;;;24.76;34.41;100597.66;4995665;28;20433;-74
2021/04/01 11:32:54;;;;;;;5.30;4.30;;;;;;;24.98;34.33;100594.19;4995147;28;20032;-74
2021/04/01 11:35:23;;;;;;;3.30;3.00;;;;;;;23.97;33.66;100587.63;4978466;28;20035;-74
2021/04/01 11:37:52;;;;;;;5.78;4.30;;;;;;;24.44;33.56;100590.03;4994323;28;20090;-74
2021/04/01 11:40:19;;;;;;;5.25;3.78;;;;;;;23.81;34.59;100584.81;4994720;28;20033;-74
2021/04/01 11:42:55;;;;;;;3.95;3.30;;;;;;;24.45;32.94;100582.31;4994897;28;20109;-74
2021/04/01 11:45:35;;;;;;;5.60;4.25;;;;;;;24.17;34.98;100572.50;4994546;28;20496;-74
2021/04/01 11:48:04;;;;;;;3.60;3.30;;;;;;;24.19;32.04;100581.38;4994525;28;20039;-75
2021/04/01 11:50:30;;;;;;;4.97;4.43;;;;;;;23.65;34.43;100564.91;4991866;28;20085;-74
2021/04/01 11:53:04;;;;;;;5.32;3.85;;;;;;;23.34;35.19;100576.56;4988291;28;20547;-75
2021/04/01 11:55:29;;;;;;;8.00;3.53;;;;;;;23.91;33.31;100572.34;4994542;28;20422;-75
2021/04/01 11:57:56;;;;;;;4.55;3.58;;;;;;;23.94;32.78;100559.31;4994334;28;20076;-75
2021/04/01 12:02:59;;;;;;;3.55;3.05;;;;;;;23.91;33.76;100560.97;4994751;28;20489;-74
2021/04/01 12:05:27;;;;;;;4.07;3.58;;;;;;;24.33;33.73;100563.91;4972679;28;20030;-75
2021/04/01 12:07:54;;;;;;;4.75;3.17;;;;;;;23.73;34.33;100572.00;4994060;28;20038;-75
2021/04/01 12:10:19;;;;;;;3.53;3.20;;;;;;;24.27;33.50;100562.88;4994604;28;20069;-74
2021/04/01 12:12:52;;;;;;;4.10;3.80;;;;;;;24.23;32.79;100565.00;4993932;28;20054;-75
2021/04/01 12:15:35;;;;;;;5.05;3.53;;;;;;;23.91;33.66;100554.50;4994288;28;20485;-76
2021/04/01 12:18:03;;;;;;;4.40;3.40;;;;;;;23.57;34.94;100549.25;4987017;28;20082;-76
2021/04/01 12:20:30;;;;;;;3.80;3.00;;;;;;;24.16;33.92;100554.63;4977710;28;20277;-75
2021/04/01 12:22:56;;;;;;;6.03;3.40;;;;;;;24.38;33.87;100552.03;4977896;28;20392;-75
2021/04/01 12:25:23;;;;;;;5.70;3.47;;;;;;;24.64;33.59;100544.38;4977753;28;20030;-76
2021/04/01 12:27:56;;;;;;;3.53;3.28;;;;;;;24.11;31.68;100543.81;4995072;28;20030;-75
2021/04/01 12:30:33;;;;;;;3.80;3.50;;;;;;;24.35;32.88;100538.72;4977637;28;20038;-76
2021/04/01 12:33:26;;;;;;;6.32;3.58;;;;;;;23.85;36.41;100545.72;4977562;28;20030;-76
2021/04/01 12:35:56;;;;;;;3.85;3.55;;;;;;;23.74;36.52;100533.84;4977302;28;20030;-75
2021/04/01 12:41:26;;;;;;;4.00;3.70;;;;;;;23.06;35.60;100523.28;4994840;28;20042;-76
2021/04/01 12:43:52;;;;;;;6.20;4.07;;;;;;;23.06;37.49;100535.44;4993538;28;20030;-76
2021/04/01 12:46:18;;;;;;;3.72;3.42;;;;;;;23.40;37.14;100529.38;4994451;28;20173;-76
2021/04/01 12:48:48;;;;;;;3.72;2.95;;;;;;;23.53;37.09;100524.56;4993502;28;20034;-75
2021/04/01 12:51:19;;;;;;;3.33;3.03;;;;;;;23.19;38.23;100527.03;4993083;28;20501;-75
2021/04/01 12:54:02;;;;;;;3.30;3.00;;;;;;;23.02;38.73;100522.59;4994725;28;20461;-75
2021/04/01 12:56:34;;;;;;;3.85;3.55;;;;;;;22.95;39.26;100521.50;4993888;28;20478;-76
2021/04/01 12:59:02;;;;;;;5.82;3.45;;;;;;;23.05;39.76;100504.66;4993347;28;20072;-76
2021/04/01 13:03:55;;;;;;;6.15;3.38;;;;;;;23.27;39.03;100500.06;4994355;28;20030;-76
2021/04/01 13:06:30;;;;;;;3.97;2.90;;;;;;;23.05;39.14;100513.97;4993326;28;20037;-76
2021/04/01 13:11:27;;;;;;;4.95;3.55;;;;;;;22.88;39.55;100506.69;4994060;28;20039;-76
2021/04/01 13:13:54;;;;;;;3.75;3.10;;;;;;;23.11;39.20;100497.22;4992254;28;20394;-76
2021/04/01 13:16:20;;;;;;;5.13;2.90;;;;;;;23.32;38.43;100502.38;4994422;28;20034;-74
2021/04/01 13:18:46;;;;;;;9.05;4.82;;;;;;;23.02;39.65;100497.06;4992116;28;20062;-75
2021/04/01 13:21:29;;;;;;;6.00;3.22;;;;;;;22.88;40.46;100501.00;4974814;28;20061;-76